EmailTwitter


Surface observations / United Kingdom / EGTE (03839)

Regions: Quebec | Canada | USA | Europe | France | UK | Elsewhere
Station
Display
Info & Location for EGTE (03839) | Help decoding METAR

Weather Conditions observed on 2018/11/19 at 11:50 UTC at EXETER AIRPORT, UK (EGTE)

Sky conditions: partly cloudy.

Temperature: 7.0 Celsius.

Dewpoint: 2.0 Celsius.

Relative Humidity: 70%

Windchill Factor: 4.

Winds: East-northeast at 19 km/h or 10 knots.

Mean Sea level Pressure: 102.00 kilopascals.

Horizontal visibility: 6.21 statute miles or 9.94 kilometers.

Height of the Ceiling: 1158 metres ( 3800 feet ).

Coded METAR:

EGTE 191150Z 07010KT 050V110 9999 BKN038 07/02 Q1020=